Time;durP1;ratioP1;P1;durP2;ratioP2;P2;SDS_P1;SDS_P2;PMS_P1;PMS_P2;Temp;Humidity;BMP_temperature;BMP_pressure;BME280_temperature;BME280_humidity;BME280_pressure;Samples;Min_cycle;Max_cycle;Signal;HPM_P1;HPM_P2
2022/04/27 00:02:07;;;;;;;;;;;;;;;;;;6204148;23;19975;-47
2022/04/27 00:04:33;;;;;;;;;;;;;;;;;;6205357;23;20203;-47
2022/04/27 00:06:59;;;;;;;;;;;;;;;;;;6205210;23;19927;-51
2022/04/27 00:09:25;;;;;;;;;;;;;;;;;;6205500;23;19904;-50
2022/04/27 00:11:50;;;;;;;;;;;;;;;;;;6206232;23;19900;-50
2022/04/27 00:14:16;;;;;;;;;;;;;;;;;;6177364;23;19900;-51
2022/04/27 00:16:42;;;;;;;;;;;;;;;;;;6205455;23;20325;-48
2022/04/27 00:19:08;;;;;;;;;;;;;;;;;;6204744;23;20006;-50
2022/04/27 00:21:34;;;;;;;;;;;;;;;;;;6204696;23;19903;-47
2022/04/27 00:24:00;;;;;;;;;;;;;;;;;;6205193;23;19987;-48
2022/04/27 00:26:26;;;;;;;;;;;;;;;;;;6204704;23;20280;-47
2022/04/27 00:28:53;;;;;;;;;;;;;;;;;;6205548;23;19953;-49
2022/04/27 00:31:19;;;;;;;;;;;;;;;;;;6203978;23;19904;-49
2022/04/27 00:33:45;;;;;;;;;;;;;;;;;;6205005;23;19911;-47
2022/04/27 00:36:11;;;;;;;;;;;;;;;;;;6178457;23;19908;-51
2022/04/27 00:38:37;;;;;;;;;;;;;;;;;;6206484;23;20096;-47
2022/04/27 00:41:03;;;;;;;;;;;;;;;;;;6180161;23;19907;-45
2022/04/27 00:43:29;;;;;;;;;;;;;;;;;;6207292;23;19904;-51
2022/04/27 00:45:55;;;;;;;;;;;;;;;;;;6206794;23;19900;-46
2022/04/27 00:48:22;;;;;;;;;;;;;;;;;;6207929;23;20230;-49
2022/04/27 00:50:48;;;;;;;;;;;;;;;;;;6207894;23;19927;-49
2022/04/27 00:53:13;;;;;;;;;;;;;;;;;;6207504;23;20214;-48
2022/04/27 00:55:39;;;;;;;;;;;;;;;;;;6207959;23;19981;-51
2022/04/27 00:58:05;;;;;;;;;;;;;;;;;;6207130;23;20392;-50
2022/04/27 01:00:31;;;;;;;;;;;;;;;;;;6206381;23;19906;-51
2022/04/27 01:02:57;;;;;;;;;;;;;;;;;;6208311;23;19904;-49
2022/04/27 01:05:23;;;;;;;;;;;;;;;;;;6207092;23;19900;-50
2022/04/27 01:07:49;;;;;;;;;;;;;;;;;;6207461;23;20372;-50
2022/04/27 01:10:15;;;;;;;;;;;;;;;;;;6207083;23;19900;-50
2022/04/27 01:12:41;;;;;;;;;;;;;;;;;;6207530;23;20269;-49
2022/04/27 01:15:07;;;;;;;;;;;;;;;;;;6207145;23;19900;-50
2022/04/27 01:17:33;;;;;;;;;;;;;;;;;;6207407;23;20011;-49
2022/04/27 01:19:59;;;;;;;;;;;;;;;;;;6207604;23;20302;-50
2022/04/27 01:22:25;;;;;;;;;;;;;;;;;;6208173;23;19900;-49
2022/04/27 01:24:51;;;;;;;;;;;;;;;;;;6207869;23;19900;-51
2022/04/27 01:27:17;;;;;;;;;;;;;;;;;;6207141;23;19904;-51
2022/04/27 01:29:44;;;;;;;;;;;;;;;;;;6206946;23;19935;-51
2022/04/27 01:32:10;;;;;;;;;;;;;;;;;;6207099;23;20253;-48
2022/04/27 01:34:36;;;;;;;;;;;;;;;;;;6207306;23;19900;-45
2022/04/27 01:39:48;;;;;;;;;;;;;;;;;;6206942;23;19926;-47
2022/04/27 01:42:15;;;;;;;;;;;;;;;;;;6207022;23;19954;-45
2022/04/27 01:44:42;;;;;;;;;;;;;;;;;;6207523;23;19900;-46
2022/04/27 01:47:08;;;;;;;;;;;;;;;;;;6206880;23;20264;-46
2022/04/27 01:49:34;;;;;;;;;;;;;;;;;;6207259;23;19903;-49
2022/04/27 01:54:45;;;;;;;;;;;;;;;;;;6206734;23;19910;-48
2022/04/27 01:57:12;;;;;;;;;;;;;;;;;;6207006;23;19982;-48
2022/04/27 01:59:38;;;;;;;;;;;;;;;;;;6207203;23;19908;-45
2022/04/27 02:02:04;;;;;;;;;;;;;;;;;;6206656;23;19931;-48
2022/04/27 02:04:30;;;;;;;;;;;;;;;;;;6206838;23;20325;-46
2022/04/27 02:06:56;;;;;;;;;;;;;;;;;;6207392;23;19908;-44
2022/04/27 02:09:22;;;;;;;;;;;;;;;;;;6207244;23;19958;-47
2022/04/27 02:11:49;;;;;;;;;;;;;;;;;;6207179;23;19904;-45
2022/04/27 02:14:15;;;;;;;;;;;;;;;;;;6206549;23;19903;-47
2022/04/27 02:16:40;;;;;;;;;;;;;;;;;;6207039;23;19900;-49
2022/04/27 02:19:06;;;;;;;;;;;;;;;;;;6206598;23;19899;-46
2022/04/27 02:21:32;;;;;;;;;;;;;;;;;;6207119;23;19903;-46
2022/04/27 02:23:58;;;;;;;;;;;;;;;;;;6206975;23;19910;-48
2022/04/27 02:26:24;;;;;;;;;;;;;;;;;;6207286;23;19935;-46
2022/04/27 02:28:50;;;;;;;;;;;;;;;;;;6206546;23;19987;-45
2022/04/27 02:31:16;;;;;;;;;;;;;;;;;;6206567;23;19904;-45
2022/04/27 02:33:42;;;;;;;;;;;;;;;;;;6206870;23;19904;-46
2022/04/27 02:36:08;;;;;;;;;;;;;;;;;;6206255;23;19935;-47
2022/04/27 02:38:34;;;;;;;;;;;;;;;;;;6206787;23;19900;-45
2022/04/27 02:41:01;;;;;;;;;;;;;;;;;;6206276;23;20372;-45
2022/04/27 02:43:27;;;;;;;;;;;;;;;;;;6206806;23;19900;-45
2022/04/27 02:45:53;;;;;;;;;;;;;;;;;;6207355;23;20337;-48
2022/04/27 02:48:19;;;;;;;;;;;;;;;;;;6206588;23;19966;-49
2022/04/27 02:53:29;;;;;;;;;;;;;;;;;;6206498;23;19967;-46
2022/04/27 02:55:56;;;;;;;;;;;;;;;;;;6207322;23;20315;-45
2022/04/27 02:58:23;;;;;;;;;;;;;;;;;;6205448;23;19908;-46
2022/04/27 03:00:50;;;;;;;;;;;;;;;;;;6206871;23;19911;-48
2022/04/27 03:03:16;;;;;;;;;;;;;;;;;;6205251;23;19904;-46
2022/04/27 03:05:43;;;;;;;;;;;;;;;;;;6206659;23;19994;-48
2022/04/27 03:08:09;;;;;;;;;;;;;;;;;;6205972;23;19986;-47
2022/04/27 03:10:35;;;;;;;;;;;;;;;;;;6206042;23;20413;-46
2022/04/27 03:13:01;;;;;;;;;;;;;;;;;;6205835;23;19908;-47
2022/04/27 03:15:28;;;;;;;;;;;;;;;;;;6206841;23;20365;-43
2022/04/27 03:20:38;;;;;;;;;;;;;;;;;;6206489;23;20001;-45
2022/04/27 03:23:04;;;;;;;;;;;;;;;;;;6206216;23;19900;-45
2022/04/27 03:25:31;;;;;;;;;;;;;;;;;;6206725;23;19904;-45
2022/04/27 03:27:57;;;;;;;;;;;;;;;;;;6206360;23;19907;-45
2022/04/27 03:30:23;;;;;;;;;;;;;;;;;;6207052;23;19904;-45
2022/04/27 03:32:50;;;;;;;;;;;;;;;;;;6206223;23;19906;-47
2022/04/27 03:35:16;;;;;;;;;;;;;;;;;;6206083;23;19908;-45
2022/04/27 03:37:42;;;;;;;;;;;;;;;;;;6206529;23;20344;-48
2022/04/27 03:40:09;;;;;;;;;;;;;;;;;;6206236;23;19900;-45
2022/04/27 03:42:35;;;;;;;;;;;;;;;;;;6206270;23;19903;-49
2022/04/27 03:45:01;;;;;;;;;;;;;;;;;;6205902;23;20226;-48
2022/04/27 03:47:28;;;;;;;;;;;;;;;;;;6179427;23;20325;-46
2022/04/27 03:50:03;;;;;;;;;;;;;;;;;;6206651;23;19939;-47
2022/04/27 03:52:29;;;;;;;;;;;;;;;;;;6206372;23;19910;-47
2022/04/27 03:55:00;;;;;;;;;;;;;;;;;;6206918;23;19994;-44
2022/04/27 03:57:26;;;;;;;;;;;;;;;;;;6206557;23;19975;-46
2022/04/27 03:59:52;;;;;;;;;;;;;;;;;;6206860;23;20348;-48
2022/04/27 04:02:17;;;;;;;;;;;;;;;;;;6205683;23;20265;-46
2022/04/27 04:04:43;;;;;;;;;;;;;;;;;;6205917;23;19907;-48
2022/04/27 04:07:12;;;;;;;;;;;;;;;;;;6205560;23;19908;-48
2022/04/27 04:09:38;;;;;;;;;;;;;;;;;;6205693;23;20513;-47
2022/04/27 04:12:04;;;;;;;;;;;;;;;;;;6204914;23;19900;-48
2022/04/27 04:14:30;;;;;;;;;;;;;;;;;;6206101;23;19904;-46
2022/04/27 04:16:56;;;;;;;;;;;;;;;;;;6206613;23;19911;-48
2022/04/27 04:19:22;;;;;;;;;;;;;;;;;;6206252;23;19969;-46
2022/04/27 04:21:48;;;;;;;;;;;;;;;;;;6205986;23;20337;-46
2022/04/27 04:24:14;;;;;;;;;;;;;;;;;;6205785;23;19977;-46
2022/04/27 04:29:24;;;;;;;;;;;;;;;;;;6206146;23;20344;-45
2022/04/27 04:31:50;;;;;;;;;;;;;;;;;;6206170;23;19904;-44
2022/04/27 04:34:16;;;;;;;;;;;;;;;;;;6206039;23;20177;-48
2022/04/27 04:36:42;;;;;;;;;;;;;;;;;;6205791;23;20249;-47
2022/04/27 04:39:09;;;;;;;;;;;;;;;;;;6205648;23;19911;-48
2022/04/27 04:41:35;;;;;;;;;;;;;;;;;;6205845;23;19900;-47
2022/04/27 04:44:01;;;;;;;;;;;;;;;;;;6205513;23;19939;-49
2022/04/27 04:46:27;;;;;;;;;;;;;;;;;;6206231;23;19899;-44
2022/04/27 04:48:52;;;;;;;;;;;;;;;;;;6206462;23;19954;-48
2022/04/27 04:51:19;;;;;;;;;;;;;;;;;;6205309;23;19904;-47
2022/04/27 04:53:45;;;;;;;;;;;;;;;;;;6205850;23;19904;-46
2022/04/27 04:56:11;;;;;;;;;;;;;;;;;;6205429;23;20260;-45
2022/04/27 04:58:37;;;;;;;;;;;;;;;;;;6205681;23;19904;-45
2022/04/27 05:01:04;;;;;;;;;;;;;;;;;;6178583;23;19990;-45
2022/04/27 05:03:36;;;;;;;;;;;;;;;;;;6205005;23;19927;-45
2022/04/27 05:06:02;;;;;;;;;;;;;;;;;;6205400;23;19910;-46
2022/04/27 05:08:27;;;;;;;;;;;;;;;;;;6205852;23;19908;-47
2022/04/27 05:10:54;;;;;;;;;;;;;;;;;;6206140;23;19912;-48
2022/04/27 05:13:20;;;;;;;;;;;;;;;;;;6205372;23;19938;-47
2022/04/27 05:15:47;;;;;;;;;;;;;;;;;;6205885;23;20333;-46
2022/04/27 05:18:13;;;;;;;;;;;;;;;;;;6205351;23;19903;-49
2022/04/27 05:20:39;;;;;;;;;;;;;;;;;;6205221;23;19904;-44
2022/04/27 05:23:05;;;;;;;;;;;;;;;;;;6205763;23;19900;-48
2022/04/27 05:25:33;;;;;;;;;;;;;;;;;;6207646;23;19912;-49
2022/04/27 05:27:59;;;;;;;;;;;;;;;;;;6207376;23;19899;-49
2022/04/27 05:33:09;;;;;;;;;;;;;;;;;;6207046;23;19907;-48
2022/04/27 05:35:36;;;;;;;;;;;;;;;;;;6207432;23;19900;-44
2022/04/27 05:38:02;;;;;;;;;;;;;;;;;;6207056;23;19986;-46
2022/04/27 05:40:28;;;;;;;;;;;;;;;;;;6206605;23;19904;-47
2022/04/27 05:42:54;;;;;;;;;;;;;;;;;;6208177;23;19900;-49
2022/04/27 05:45:20;;;;;;;;;;;;;;;;;;6207063;23;19939;-47
2022/04/27 05:47:46;;;;;;;;;;;;;;;;;;6207047;23;19904;-49
2022/04/27 05:50:12;;;;;;;;;;;;;;;;;;6207034;23;19983;-46
2022/04/27 05:52:38;;;;;;;;;;;;;;;;;;6207716;23;19974;-47
2022/04/27 05:55:05;;;;;;;;;;;;;;;;;;6206692;23;20304;-47
2022/04/27 05:57:31;;;;;;;;;;;;;;;;;;6207124;23;19911;-48
2022/04/27 05:59:57;;;;;;;;;;;;;;;;;;6207912;23;19903;-48
2022/04/27 06:02:23;;;;;;;;;;;;;;;;;;6207381;23;19931;-47
2022/04/27 06:04:49;;;;;;;;;;;;;;;;;;6207268;23;19922;-47
2022/04/27 06:07:15;;;;;;;;;;;;;;;;;;6208028;23;20345;-50
2022/04/27 06:09:41;;;;;;;;;;;;;;;;;;6208397;23;19904;-47
2022/04/27 06:12:07;;;;;;;;;;;;;;;;;;6208425;23;19910;-46
2022/04/27 06:14:34;;;;;;;;;;;;;;;;;;6208717;23;19903;-50
2022/04/27 06:17:00;;;;;;;;;;;;;;;;;;6208454;23;19911;-47
2022/04/27 06:19:26;;;;;;;;;;;;;;;;;;6209360;23;19935;-50
2022/04/27 06:21:52;;;;;;;;;;;;;;;;;;6208278;23;19908;-47
2022/04/27 06:24:18;;;;;;;;;;;;;;;;;;6208436;23;19900;-49
2022/04/27 06:26:44;;;;;;;;;;;;;;;;;;6208418;23;19907;-50
2022/04/27 06:29:10;;;;;;;;;;;;;;;;;;6208425;23;19904;-51
2022/04/27 06:31:36;;;;;;;;;;;;;;;;;;6208301;23;19906;-48
2022/04/27 06:34:02;;;;;;;;;;;;;;;;;;6207799;23;20342;-47
2022/04/27 06:36:28;;;;;;;;;;;;;;;;;;6208270;23;19980;-47
2022/04/27 06:38:54;;;;;;;;;;;;;;;;;;6209137;23;19978;-47
2022/04/27 06:41:20;;;;;;;;;;;;;;;;;;6207969;23;20016;-45
2022/04/27 06:43:47;;;;;;;;;;;;;;;;;;6207935;23;19908;-47
2022/04/27 06:46:13;;;;;;;;;;;;;;;;;;6206906;23;20628;-48
2022/04/27 06:48:39;;;;;;;;;;;;;;;;;;6207885;23;19907;-47
2022/04/27 06:51:05;;;;;;;;;;;;;;;;;;6207164;23;19904;-48
2022/04/27 06:53:31;;;;;;;;;;;;;;;;;;6207257;23;19906;-48
2022/04/27 06:55:57;;;;;;;;;;;;;;;;;;6209898;23;20341;-46
2022/04/27 06:58:23;;;;;;;;;;;;;;;;;;6209590;23;19900;-46
2022/04/27 07:00:49;;;;;;;;;;;;;;;;;;6208916;23;19907;-49
2022/04/27 07:03:15;;;;;;;;;;;;;;;;;;6208259;23;19900;-48
2022/04/27 07:05:41;;;;;;;;;;;;;;;;;;6208826;23;19900;-49
2022/04/27 07:08:07;;;;;;;;;;;;;;;;;;6208424;23;19957;-50
2022/04/27 07:10:36;;;;;;;;;;;;;;;;;;6208476;23;19907;-51
2022/04/27 07:13:02;;;;;;;;;;;;;;;;;;6208645;23;19904;-50
2022/04/27 07:15:28;;;;;;;;;;;;;;;;;;6208653;23;19908;-48
2022/04/27 07:17:54;;;;;;;;;;;;;;;;;;6209825;23;19950;-50
2022/04/27 07:20:20;;;;;;;;;;;;;;;;;;6208098;23;19908;-48
2022/04/27 07:22:46;;;;;;;;;;;;;;;;;;6207859;23;19899;-50
2022/04/27 07:25:14;;;;;;;;;;;;;;;;;;6207852;23;19903;-47
2022/04/27 07:27:40;;;;;;;;;;;;;;;;;;6208859;23;19907;-50
2022/04/27 07:30:06;;;;;;;;;;;;;;;;;;6208342;23;19904;-47
2022/04/27 07:32:32;;;;;;;;;;;;;;;;;;6208655;23;20273;-47
2022/04/27 07:34:58;;;;;;;;;;;;;;;;;;6208350;23;19912;-47
2022/04/27 07:37:24;;;;;;;;;;;;;;;;;;6208546;23;19931;-47
2022/04/27 07:39:50;;;;;;;;;;;;;;;;;;6208228;23;19978;-49
2022/04/27 07:42:17;;;;;;;;;;;;;;;;;;6208171;23;19904;-49
2022/04/27 07:44:43;;;;;;;;;;;;;;;;;;6208608;23;19965;-48
2022/04/27 07:47:09;;;;;;;;;;;;;;;;;;6181078;23;20413;-50
2022/04/27 07:49:34;;;;;;;;;;;;;;;;;;6207985;23;19904;-47
2022/04/27 07:52:00;;;;;;;;;;;;;;;;;;6207411;23;19931;-49
2022/04/27 07:54:26;;;;;;;;;;;;;;;;;;6208726;23;19950;-48
2022/04/27 07:56:53;;;;;;;;;;;;;;;;;;6209152;23;19920;-49
2022/04/27 07:59:19;;;;;;;;;;;;;;;;;;6207860;23;19908;-46
2022/04/27 08:01:46;;;;;;;;;;;;;;;;;;6208549;23;19900;-49
2022/04/27 08:04:12;;;;;;;;;;;;;;;;;;6207816;23;20349;-47
2022/04/27 08:06:38;;;;;;;;;;;;;;;;;;6207930;23;19916;-49
2022/04/27 08:09:04;;;;;;;;;;;;;;;;;;6208032;23;19990;-50
2022/04/27 08:11:30;;;;;;;;;;;;;;;;;;6208228;23;20345;-47
2022/04/27 08:13:56;;;;;;;;;;;;;;;;;;6209234;23;19922;-48
2022/04/27 08:16:22;;;;;;;;;;;;;;;;;;6208166;23;19899;-51
2022/04/27 08:18:49;;;;;;;;;;;;;;;;;;6208558;23;19911;-47
2022/04/27 08:21:15;;;;;;;;;;;;;;;;;;6208230;23;19975;-50
2022/04/27 08:23:41;;;;;;;;;;;;;;;;;;6208317;23;19900;-49
2022/04/27 08:26:07;;;;;;;;;;;;;;;;;;6207985;23;20399;-47
2022/04/27 08:28:33;;;;;;;;;;;;;;;;;;6208272;23;20399;-48
2022/04/27 08:30:59;;;;;;;;;;;;;;;;;;6207690;23;19927;-50
2022/04/27 08:33:25;;;;;;;;;;;;;;;;;;6209244;23;19940;-50
2022/04/27 08:35:51;;;;;;;;;;;;;;;;;;6208693;23;19900;-51
2022/04/27 08:38:17;;;;;;;;;;;;;;;;;;6207800;23;19910;-50
2022/04/27 08:40:43;;;;;;;;;;;;;;;;;;6208129;23;19904;-50
2022/04/27 08:43:12;;;;;;;;;;;;;;;;;;6208311;23;19922;-46
2022/04/27 08:45:37;;;;;;;;;;;;;;;;;;6208307;23;19907;-50
2022/04/27 08:48:03;;;;;;;;;;;;;;;;;;6208066;23;19903;-47
2022/04/27 08:50:30;;;;;;;;;;;;;;;;;;6208214;23;19900;-50
2022/04/27 08:52:56;;;;;;;;;;;;;;;;;;6208937;23;19975;-50
2022/04/27 08:55:21;;;;;;;;;;;;;;;;;;6207737;23;19935;-48
2022/04/27 08:57:50;;;;;;;;;;;;;;;;;;6208222;23;19916;-49
2022/04/27 09:00:16;;;;;;;;;;;;;;;;;;6209554;23;19906;-47
2022/04/27 09:02:42;;;;;;;;;;;;;;;;;;6210519;23;19899;-51
2022/04/27 09:05:08;;;;;;;;;;;;;;;;;;6209564;23;19942;-50
2022/04/27 09:07:34;;;;;;;;;;;;;;;;;;6209430;23;19950;-47
2022/04/27 09:10:00;;;;;;;;;;;;;;;;;;6209336;23;19908;-49
2022/04/27 09:12:26;;;;;;;;;;;;;;;;;;6210964;23;19900;-47
2022/04/27 09:14:52;;;;;;;;;;;;;;;;;;6210862;23;19907;-48
2022/04/27 09:22:48;;;;;;;;;;;;;;;;;;6209814;23;19962;-50
2022/04/27 09:25:14;;;;;;;;;;;;;;;;;;6209869;23;20333;-48
2022/04/27 09:27:39;;;;;;;;;;;;;;;;;;6210335;23;19900;-48
2022/04/27 09:30:10;;;;;;;;;;;;;;;;;;6209887;23;19908;-47
2022/04/27 09:32:36;;;;;;;;;;;;;;;;;;6209834;23;19911;-51
2022/04/27 09:35:03;;;;;;;;;;;;;;;;;;6209324;23;19904;-50
2022/04/27 09:37:30;;;;;;;;;;;;;;;;;;6209132;23;19900;-50
2022/04/27 09:39:56;;;;;;;;;;;;;;;;;;6210267;23;19927;-48
2022/04/27 09:42:22;;;;;;;;;;;;;;;;;;6210232;23;20244;-49
2022/04/27 09:44:48;;;;;;;;;;;;;;;;;;6209162;23;19903;-48
2022/04/27 09:47:14;;;;;;;;;;;;;;;;;;6209794;23;19910;-51
2022/04/27 09:49:41;;;;;;;;;;;;;;;;;;6209646;23;19984;-50
2022/04/27 09:52:07;;;;;;;;;;;;;;;;;;6209794;23;19987;-48
2022/04/27 09:54:36;;;;;;;;;;;;;;;;;;6209334;23;19907;-49
2022/04/27 09:57:02;;;;;;;;;;;;;;;;;;6209600;23;19920;-50
2022/04/27 09:59:31;;;;;;;;;;;;;;;;;;6209792;23;19935;-47
2022/04/27 10:01:57;;;;;;;;;;;;;;;;;;6182760;23;20512;-47
2022/04/27 10:04:23;;;;;;;;;;;;;;;;;;6210196;23;19957;-50
2022/04/27 10:06:49;;;;;;;;;;;;;;;;;;6205181;23;20260;-50
2022/04/27 10:09:15;;;;;;;;;;;;;;;;;;6205619;23;19997;-50
2022/04/27 10:11:41;;;;;;;;;;;;;;;;;;6207307;23;19904;-47
2022/04/27 10:14:07;;;;;;;;;;;;;;;;;;6182076;23;20342;-48
2022/04/27 10:16:33;;;;;;;;;;;;;;;;;;6208081;23;19899;-48
2022/04/27 10:18:59;;;;;;;;;;;;;;;;;;6209255;23;19982;-49
2022/04/27 10:21:25;;;;;;;;;;;;;;;;;;6209455;23;19907;-49
2022/04/27 10:23:51;;;;;;;;;;;;;;;;;;6209097;23;20337;-50
2022/04/27 10:26:17;;;;;;;;;;;;;;;;;;6208487;23;19981;-51
2022/04/27 10:28:43;;;;;;;;;;;;;;;;;;6209120;23;19903;-49
2022/04/27 10:31:10;;;;;;;;;;;;;;;;;;6208611;23;19904;-51
2022/04/27 10:33:36;;;;;;;;;;;;;;;;;;6208865;23;20494;-51
2022/04/27 10:36:01;;;;;;;;;;;;;;;;;;6209122;23;19931;-48
2022/04/27 10:38:27;;;;;;;;;;;;;;;;;;6208467;23;19938;-50
2022/04/27 10:40:53;;;;;;;;;;;;;;;;;;6209787;23;19900;-51
2022/04/27 10:43:19;;;;;;;;;;;;;;;;;;6209271;23;19926;-49
2022/04/27 10:45:47;;;;;;;;;;;;;;;;;;6209038;23;20334;-49
2022/04/27 10:48:13;;;;;;;;;;;;;;;;;;6208227;23;19903;-47
2022/04/27 10:50:39;;;;;;;;;;;;;;;;;;6209361;23;19904;-48
2022/04/27 10:53:05;;;;;;;;;;;;;;;;;;6208246;23;19910;-49
2022/04/27 10:55:31;;;;;;;;;;;;;;;;;;6208976;23;19904;-49
2022/04/27 10:57:57;;;;;;;;;;;;;;;;;;6209190;23;19907;-51
2022/04/27 11:00:23;;;;;;;;;;;;;;;;;;6208958;23;19982;-51
2022/04/27 11:02:53;;;;;;;;;;;;;;;;;;6208637;23;19903;-50
2022/04/27 11:05:19;;;;;;;;;;;;;;;;;;6208094;23;19954;-50
2022/04/27 11:07:45;;;;;;;;;;;;;;;;;;6205717;23;20260;-47
2022/04/27 11:10:12;;;;;;;;;;;;;;;;;;6207922;23;19986;-50
2022/04/27 11:12:37;;;;;;;;;;;;;;;;;;6208370;23;19986;-47
2022/04/27 11:15:04;;;;;;;;;;;;;;;;;;6208475;23;19950;-51
2022/04/27 11:17:30;;;;;;;;;;;;;;;;;;6208923;23;19912;-51
2022/04/27 11:19:56;;;;;;;;;;;;;;;;;;6209315;23;19931;-48
2022/04/27 11:22:22;;;;;;;;;;;;;;;;;;6207810;23;19900;-48
2022/04/27 11:24:49;;;;;;;;;;;;;;;;;;6206837;23;20360;-51
2022/04/27 11:27:15;;;;;;;;;;;;;;;;;;6207462;23;20289;-48
2022/04/27 11:29:42;;;;;;;;;;;;;;;;;;6207527;23;19927;-51
2022/04/27 11:32:08;;;;;;;;;;;;;;;;;;6206999;23;19911;-47
2022/04/27 11:34:34;;;;;;;;;;;;;;;;;;6207289;23;19931;-48
2022/04/27 11:37:00;;;;;;;;;;;;;;;;;;6207041;23;19904;-49
2022/04/27 11:39:26;;;;;;;;;;;;;;;;;;6207940;23;20249;-51
2022/04/27 11:41:52;;;;;;;;;;;;;;;;;;6208477;23;19907;-52
2022/04/27 11:44:18;;;;;;;;;;;;;;;;;;6207298;23;20296;-50
2022/04/27 11:46:44;;;;;;;;;;;;;;;;;;6209153;23;19904;-49
2022/04/27 11:49:11;;;;;;;;;;;;;;;;;;6208447;23;19954;-51
2022/04/27 11:51:37;;;;;;;;;;;;;;;;;;6208726;23;20226;-50
2022/04/27 11:54:03;;;;;;;;;;;;;;;;;;6208933;23;19954;-49
2022/04/27 11:56:28;;;;;;;;;;;;;;;;;;6208988;23;19942;-49
2022/04/27 11:58:54;;;;;;;;;;;;;;;;;;6209929;23;19974;-52
2022/04/27 12:01:20;;;;;;;;;;;;;;;;;;6207236;23;19904;-47
2022/04/27 12:03:49;;;;;;;;;;;;;;;;;;6208870;23;19899;-50
2022/04/27 12:06:15;;;;;;;;;;;;;;;;;;6207508;23;19979;-51
2022/04/27 12:08:40;;;;;;;;;;;;;;;;;;6207890;23;19935;-51
2022/04/27 12:11:06;;;;;;;;;;;;;;;;;;6206817;23;19900;-50
2022/04/27 12:13:32;;;;;;;;;;;;;;;;;;6206448;23;19962;-52
2022/04/27 12:15:58;;;;;;;;;;;;;;;;;;6206733;23;20245;-51
2022/04/27 12:18:28;;;;;;;;;;;;;;;;;;6206555;23;19958;-50
2022/04/27 12:20:58;;;;;;;;;;;;;;;;;;6207853;23;19945;-51
2022/04/27 12:23:23;;;;;;;;;;;;;;;;;;6207652;23;19950;-47
2022/04/27 12:25:53;;;;;;;;;;;;;;;;;;6206279;23;19911;-50
2022/04/27 12:28:19;;;;;;;;;;;;;;;;;;6206234;23;20516;-51
2022/04/27 12:30:48;;;;;;;;;;;;;;;;;;6207260;23;19939;-50
2022/04/27 12:33:14;;;;;;;;;;;;;;;;;;6207381;23;19978;-50
2022/04/27 12:38:25;;;;;;;;;;;;;;;;;;6210016;23;20324;-51
2022/04/27 12:40:52;;;;;;;;;;;;;;;;;;6208222;23;19904;-48
2022/04/27 12:43:18;;;;;;;;;;;;;;;;;;6207406;23;19915;-48
2022/04/27 12:45:43;;;;;;;;;;;;;;;;;;6206500;23;20253;-50
2022/04/27 12:48:11;;;;;;;;;;;;;;;;;;6207762;23;19906;-50
2022/04/27 12:50:37;;;;;;;;;;;;;;;;;;6208804;23;20363;-52
2022/04/27 12:53:03;;;;;;;;;;;;;;;;;;6208225;23;19900;-49
2022/04/27 12:55:28;;;;;;;;;;;;;;;;;;6209322;23;19907;-48
2022/04/27 12:57:59;;;;;;;;;;;;;;;;;;6209817;23;19923;-49
2022/04/27 13:00:26;;;;;;;;;;;;;;;;;;6207920;23;19904;-52
2022/04/27 13:02:52;;;;;;;;;;;;;;;;;;6209426;23;19903;-49
2022/04/27 13:05:18;;;;;;;;;;;;;;;;;;6207741;23;20405;-51
2022/04/27 13:07:44;;;;;;;;;;;;;;;;;;6209254;23;19940;-51
2022/04/27 13:12:54;;;;;;;;;;;;;;;;;;6209507;23;20268;-50
2022/04/27 13:15:21;;;;;;;;;;;;;;;;;;6208077;23;19904;-47
2022/04/27 13:17:47;;;;;;;;;;;;;;;;;;6209223;23;20393;-49
2022/04/27 13:20:13;;;;;;;;;;;;;;;;;;6208450;23;19906;-52
2022/04/27 13:22:39;;;;;;;;;;;;;;;;;;6208776;23;20286;-51
2022/04/27 13:25:05;;;;;;;;;;;;;;;;;;6208536;23;20586;-49
2022/04/27 13:27:31;;;;;;;;;;;;;;;;;;6207154;23;20387;-49
2022/04/27 13:29:57;;;;;;;;;;;;;;;;;;6207085;23;19908;-48
2022/04/27 13:32:24;;;;;;;;;;;;;;;;;;6206611;23;19978;-49
2022/04/27 13:34:51;;;;;;;;;;;;;;;;;;6206375;23;19899;-48
2022/04/27 13:37:17;;;;;;;;;;;;;;;;;;6179738;23;20919;-51
2022/04/27 13:39:42;;;;;;;;;;;;;;;;;;6206620;23;19927;-48
2022/04/27 13:42:08;;;;;;;;;;;;;;;;;;6206884;23;20292;-50
2022/04/27 13:44:34;;;;;;;;;;;;;;;;;;6205916;23;20498;-52
2022/04/27 13:47:00;;;;;;;;;;;;;;;;;;6179693;23;19916;-49
2022/04/27 13:49:26;;;;;;;;;;;;;;;;;;6207592;23;19994;-51
2022/04/27 13:51:52;;;;;;;;;;;;;;;;;;6207008;23;19899;-47
2022/04/27 13:54:18;;;;;;;;;;;;;;;;;;6205831;23;19971;-50
2022/04/27 13:56:44;;;;;;;;;;;;;;;;;;6206483;23;19900;-49
2022/04/27 13:59:11;;;;;;;;;;;;;;;;;;6178790;23;20337;-51
2022/04/27 14:01:38;;;;;;;;;;;;;;;;;;6205996;23;19900;-51
2022/04/27 14:04:04;;;;;;;;;;;;;;;;;;6206438;23;20309;-51
2022/04/27 14:06:30;;;;;;;;;;;;;;;;;;6206395;23;20213;-51
2022/04/27 14:08:56;;;;;;;;;;;;;;;;;;6180404;23;19915;-50
2022/04/27 14:14:06;;;;;;;;;;;;;;;;;;6205869;23;19973;-51
2022/04/27 14:19:17;;;;;;;;;;;;;;;;;;6205958;23;20519;-49
2022/04/27 14:21:44;;;;;;;;;;;;;;;;;;6205751;23;20465;-50
2022/04/27 14:24:11;;;;;;;;;;;;;;;;;;6205915;23;19923;-48
2022/04/27 14:26:37;;;;;;;;;;;;;;;;;;6206324;23;19900;-49
2022/04/27 14:29:04;;;;;;;;;;;;;;;;;;6205808;23;19987;-51
2022/04/27 14:31:31;;;;;;;;;;;;;;;;;;6205907;23;19900;-52
2022/04/27 14:33:57;;;;;;;;;;;;;;;;;;6206640;23;19975;-47
2022/04/27 14:36:24;;;;;;;;;;;;;;;;;;6179316;23;20257;-47
2022/04/27 14:38:50;;;;;;;;;;;;;;;;;;6206079;23;20341;-49
2022/04/27 14:41:16;;;;;;;;;;;;;;;;;;6205572;23;19965;-50
2022/04/27 14:43:42;;;;;;;;;;;;;;;;;;6205708;23;19900;-49
2022/04/27 14:46:09;;;;;;;;;;;;;;;;;;6205326;23;19904;-50
2022/04/27 14:48:35;;;;;;;;;;;;;;;;;;6205674;23;19915;-47
2022/04/27 14:51:02;;;;;;;;;;;;;;;;;;6179042;23;20345;-48
2022/04/27 14:53:28;;;;;;;;;;;;;;;;;;6205844;23;19931;-48
2022/04/27 14:55:55;;;;;;;;;;;;;;;;;;6206248;23;19907;-47
2022/04/27 14:58:21;;;;;;;;;;;;;;;;;;6179084;23;19954;-49
2022/04/27 15:00:48;;;;;;;;;;;;;;;;;;6205864;23;20336;-50
2022/04/27 15:03:15;;;;;;;;;;;;;;;;;;6205599;23;19899;-51
2022/04/27 15:05:41;;;;;;;;;;;;;;;;;;6205465;23;20404;-51
2022/04/27 15:08:07;;;;;;;;;;;;;;;;;;6173412;23;19954;-51
2022/04/27 15:10:34;;;;;;;;;;;;;;;;;;6175554;23;20357;-50
2022/04/27 15:13:01;;;;;;;;;;;;;;;;;;6175317;23;19930;-49
2022/04/27 15:15:28;;;;;;;;;;;;;;;;;;6173241;23;20406;-48
2022/04/27 15:17:54;;;;;;;;;;;;;;;;;;6174360;23;19900;-47
2022/04/27 15:23:04;;;;;;;;;;;;;;;;;;6175520;23;19943;-47
2022/04/27 15:25:30;;;;;;;;;;;;;;;;;;6175353;23;19900;-49
2022/04/27 15:27:57;;;;;;;;;;;;;;;;;;6176067;23;20361;-49
2022/04/27 15:30:24;;;;;;;;;;;;;;;;;;6175769;23;19911;-49
2022/04/27 15:32:50;;;;;;;;;;;;;;;;;;6175190;23;19978;-52
2022/04/27 15:35:16;;;;;;;;;;;;;;;;;;6174870;23;20353;-50
2022/04/27 15:37:43;;;;;;;;;;;;;;;;;;6175557;23;19911;-51
2022/04/27 15:40:09;;;;;;;;;;;;;;;;;;6173337;23;20330;-48
2022/04/27 15:42:35;;;;;;;;;;;;;;;;;;6175195;23;19907;-49
2022/04/27 15:45:00;;;;;;;;;;;;;;;;;;6173801;23;19992;-50
2022/04/27 15:47:26;;;;;;;;;;;;;;;;;;6174539;23;19904;-47
2022/04/27 15:49:53;;;;;;;;;;;;;;;;;;6174577;23;19904;-50
2022/04/27 15:52:19;;;;;;;;;;;;;;;;;;6175123;23;19900;-47
2022/04/27 15:54:45;;;;;;;;;;;;;;;;;;6173549;23;20364;-49
2022/04/27 15:57:12;;;;;;;;;;;;;;;;;;6174981;23;19923;-47
2022/04/27 15:59:39;;;;;;;;;;;;;;;;;;6175225;23;19904;-49
2022/04/27 16:02:05;;;;;;;;;;;;;;;;;;6174845;23;19907;-50
2022/04/27 16:04:31;;;;;;;;;;;;;;;;;;6175137;23;20344;-49
2022/04/27 16:06:57;;;;;;;;;;;;;;;;;;6189594;23;19911;-50
2022/04/27 16:09:22;;;;;;;;;;;;;;;;;;6178925;23;20301;-51
2022/04/27 16:11:48;;;;;;;;;;;;;;;;;;6205086;23;19918;-51
2022/04/27 16:14:16;;;;;;;;;;;;;;;;;;6204889;23;19906;-50
2022/04/27 16:16:42;;;;;;;;;;;;;;;;;;6205504;23;19910;-50
2022/04/27 16:19:08;;;;;;;;;;;;;;;;;;6204834;23;20466;-50
2022/04/27 16:24:18;;;;;;;;;;;;;;;;;;6204572;23;20466;-51
2022/04/27 16:26:44;;;;;;;;;;;;;;;;;;6202995;23;19900;-49
2022/04/27 16:29:10;;;;;;;;;;;;;;;;;;6204758;23;19903;-51
2022/04/27 16:31:36;;;;;;;;;;;;;;;;;;6205783;23;19943;-47
2022/04/27 16:34:02;;;;;;;;;;;;;;;;;;6204811;23;19904;-51
2022/04/27 16:36:28;;;;;;;;;;;;;;;;;;6205205;23;19907;-49
2022/04/27 16:38:55;;;;;;;;;;;;;;;;;;6205556;23;19986;-48
2022/04/27 16:41:22;;;;;;;;;;;;;;;;;;6204691;23;20294;-49
2022/04/27 16:43:48;;;;;;;;;;;;;;;;;;6178560;23;20347;-52
2022/04/27 16:46:14;;;;;;;;;;;;;;;;;;6204154;23;19900;-52
2022/04/27 16:48:40;;;;;;;;;;;;;;;;;;6206114;23;19962;-53
2022/04/27 16:51:07;;;;;;;;;;;;;;;;;;6205360;23;20341;-50
2022/04/27 16:53:33;;;;;;;;;;;;;;;;;;6206485;23;19922;-51
2022/04/27 16:55:59;;;;;;;;;;;;;;;;;;6206304;23;20502;-50
2022/04/27 16:58:26;;;;;;;;;;;;;;;;;;6179514;23;20399;-50
2022/04/27 17:00:53;;;;;;;;;;;;;;;;;;6180186;23;20539;-51
2022/04/27 17:03:18;;;;;;;;;;;;;;;;;;6206111;23;19911;-52
2022/04/27 17:05:44;;;;;;;;;;;;;;;;;;6207080;23;19900;-51
2022/04/27 17:08:11;;;;;;;;;;;;;;;;;;6206445;23;19908;-48
2022/04/27 17:10:36;;;;;;;;;;;;;;;;;;6205877;23;19973;-52
2022/04/27 17:13:02;;;;;;;;;;;;;;;;;;6205434;23;19978;-50
2022/04/27 17:15:33;;;;;;;;;;;;;;;;;;6206949;23;19906;-48
2022/04/27 17:17:59;;;;;;;;;;;;;;;;;;6207132;23;20231;-51